Time;durP1;ratioP1;P1;durP2;ratioP2;P2;SDS_P1;SDS_P2;PMS_P1;PMS_P2;Temp;Humidity;BMP_temperature;BMP_pressure;BME280_temperature;BME280_humidity;BME280_pressure;Samples;Min_cycle;Max_cycle;Signal;HPM_P1;HPM_P2
2023/04/24 00:00:09;;;;;;;0.77;0.77;;;11.20;99.90;;;;;;4992180;28;20242;-83
2023/04/24 00:02:39;;;;;;;1.10;1.07;;;11.20;99.90;;;;;;4992571;28;20223;-83
2023/04/24 00:05:07;;;;;;;3.13;1.53;;;11.20;99.90;;;;;;5005962;28;20237;-82
2023/04/24 00:07:36;;;;;;;2.57;1.87;;;11.20;99.90;;;;;;5043758;28;20217;-82
2023/04/24 00:10:01;;;;;;;2.17;1.43;;;11.20;99.90;;;;;;5050529;28;20217;-83
2023/04/24 00:12:27;;;;;;;2.33;1.53;;;11.20;99.90;;;;;;5050080;28;20217;-83
2023/04/24 00:14:53;;;;;;;1.10;1.10;;;11.20;99.90;;;;;;5049408;27;20678;-82
2023/04/24 00:17:21;;;;;;;4.83;1.50;;;11.20;99.90;;;;;;5054263;28;20959;-83
2023/04/24 00:19:48;;;;;;;3.33;1.73;;;11.20;99.90;;;;;;5050942;28;20228;-83
2023/04/24 00:22:14;;;;;;;1.67;1.57;;;11.20;99.90;;;;;;5048993;28;20282;-82
2023/04/24 00:24:40;;;;;;;4.90;1.77;;;11.20;99.90;;;;;;5041094;28;20226;-83
2023/04/24 00:27:06;;;;;;;2.03;1.83;;;11.20;99.90;;;;;;5050837;28;20224;-82
2023/04/24 00:29:31;;;;;;;1.37;1.07;;;11.30;99.90;;;;;;5041794;28;20220;-83
2023/04/24 00:31:58;;;;;;;1.63;1.33;;;11.20;99.90;;;;;;5049279;28;20225;-83
2023/04/24 00:34:23;;;;;;;2.60;1.93;;;11.20;99.90;;;;;;5051300;27;20995;-82
2023/04/24 00:36:52;;;;;;;2.03;0.83;;;11.20;99.90;;;;;;5046259;28;20396;-82
2023/04/24 00:39:19;;;;;;;0.80;0.80;;;11.20;99.90;;;;;;5045119;28;20612;-83
2023/04/24 00:41:46;;;;;;;7.70;1.33;;;11.20;99.90;;;;;;5047376;28;20316;-84
2023/04/24 00:44:11;;;;;;;1.43;1.33;;;11.20;99.90;;;;;;5035027;28;21159;-83
2023/04/24 00:46:38;;;;;;;1.30;0.80;;;11.20;99.90;;;;;;5048659;28;20225;-83
2023/04/24 00:49:05;;;;;;;1.60;1.50;;;11.20;99.90;;;;;;5044501;28;20302;-82
2023/04/24 00:51:32;;;;;;;2.10;1.50;;;11.20;99.90;;;;;;5047503;28;20221;-82
2023/04/24 00:54:01;;;;;;;5.27;2.10;;;11.20;99.90;;;;;;5050203;27;20360;-83
2023/04/24 00:56:27;;;;;;;3.40;1.33;;;11.20;99.90;;;;;;5042254;28;20208;-83
2023/04/24 00:58:53;;;;;;;1.60;1.30;;;11.20;99.90;;;;;;5048773;28;20229;-83
2023/04/24 01:01:20;;;;;;;3.90;2.00;;;11.20;99.90;;;;;;5048929;28;20623;-82
2023/04/24 01:03:47;;;;;;;3.17;1.47;;;11.20;99.90;;;;;;5045954;28;20248;-83
2023/04/24 01:06:13;;;;;;;3.27;1.50;;;11.20;99.90;;;;;;5040388;28;20261;-83
2023/04/24 01:08:40;;;;;;;1.20;1.00;;;11.20;99.90;;;;;;5046134;28;20190;-82
2023/04/24 01:11:06;;;;;;;3.20;1.70;;;11.20;99.90;;;;;;5047516;28;20333;-83
2023/04/24 01:13:33;;;;;;;2.33;1.50;;;11.20;99.90;;;;;;5049654;27;20221;-83
2023/04/24 01:16:00;;;;;;;1.23;1.13;;;11.20;99.90;;;;;;5052063;28;20222;-82
2023/04/24 01:18:26;;;;;;;1.60;1.20;;;11.30;99.90;;;;;;5048182;28;20223;-83
2023/04/24 01:20:56;;;;;;;1.67;1.53;;;11.20;99.90;;;;;;5049773;28;20269;-83
2023/04/24 01:23:22;;;;;;;2.23;1.57;;;11.30;99.90;;;;;;5052859;28;20205;-83
2023/04/24 01:25:49;;;;;;;1.33;1.23;;;11.30;99.90;;;;;;5052810;28;20737;-82
2023/04/24 01:28:15;;;;;;;3.43;1.90;;;11.40;99.90;;;;;;5049137;28;20228;-83
2023/04/24 01:30:41;;;;;;;2.70;2.13;;;11.30;99.90;;;;;;5049280;28;20228;-84
2023/04/24 01:33:07;;;;;;;2.40;2.03;;;11.30;99.90;;;;;;5056635;28;20253;-83
2023/04/24 01:35:34;;;;;;;4.53;1.93;;;11.30;99.90;;;;;;5052666;28;20220;-84
2023/04/24 01:38:00;;;;;;;5.23;1.50;;;11.30;99.90;;;;;;5055011;28;20251;-82
2023/04/24 01:40:28;;;;;;;2.07;1.83;;;11.40;99.90;;;;;;5043539;28;20329;-83
2023/04/24 01:42:54;;;;;;;4.37;2.80;;;11.40;99.90;;;;;;5042912;28;20265;-82
2023/04/24 01:45:20;;;;;;;5.47;3.27;;;11.40;99.90;;;;;;5033627;28;20316;-83
2023/04/24 01:47:46;;;;;;;5.10;3.83;;;11.40;99.90;;;;;;5050343;27;20181;-81
2023/04/24 01:50:12;;;;;;;5.67;3.33;;;11.40;99.90;;;;;;5053788;28;20190;-84
2023/04/24 01:52:38;;;;;;;4.37;2.47;;;11.40;99.90;;;;;;5053043;28;20228;-82
2023/04/24 01:55:05;;;;;;;4.60;2.53;;;11.30;99.90;;;;;;5049731;27;20249;-82
2023/04/24 01:57:31;;;;;;;3.50;2.87;;;11.30;99.90;;;;;;5052637;28;20299;-83
2023/04/24 01:59:57;;;;;;;5.63;2.47;;;11.40;99.90;;;;;;5050426;27;20206;-82
2023/04/24 02:02:29;;;;;;;2.93;2.07;;;11.20;99.90;;;;;;5052022;28;20221;-82
2023/04/24 02:04:56;;;;;;;2.47;1.87;;;11.10;99.90;;;;;;5052099;28;20245;-82
2023/04/24 02:07:22;;;;;;;1.70;1.53;;;11.10;99.90;;;;;;5051323;28;20648;-82
2023/04/24 02:09:48;;;;;;;2.73;1.93;;;11.20;99.90;;;;;;5051139;27;20213;-82
2023/04/24 02:12:14;;;;;;;2.87;1.40;;;11.10;99.90;;;;;;5051837;28;20222;-81
2023/04/24 02:14:40;;;;;;;1.43;1.13;;;11.10;99.90;;;;;;5051500;28;20198;-83
2023/04/24 02:17:06;;;;;;;0.50;0.50;;;11.10;99.90;;;;;;5049967;28;20221;-82
2023/04/24 02:19:32;;;;;;;0.50;0.50;;;11.00;99.90;;;;;;5042488;28;20251;-82
2023/04/24 02:21:57;;;;;;;0.20;0.20;;;10.90;99.90;;;;;;5043683;28;20237;-83
2023/04/24 02:24:23;;;;;;;0.30;0.30;;;10.90;99.90;;;;;;5052562;28;20591;-82
2023/04/24 02:26:49;;;;;;;0.30;0.30;;;10.80;99.90;;;;;;5051391;27;20228;-82
2023/04/24 02:29:15;;;;;;;0.40;0.40;;;10.80;99.90;;;;;;5052648;28;20190;-82
2023/04/24 02:31:40;;;;;;;0.40;0.40;;;10.70;99.90;;;;;;5050216;28;21007;-82
2023/04/24 02:34:06;;;;;;;0.40;0.40;;;10.80;99.90;;;;;;5055416;27;20217;-81
2023/04/24 02:36:32;;;;;;;0.20;0.20;;;10.70;99.90;;;;;;5049817;28;20693;-82
2023/04/24 02:38:58;;;;;;;1.23;0.40;;;10.80;99.90;;;;;;5047140;27;20209;-82
2023/04/24 02:41:23;;;;;;;0.30;0.30;;;10.70;99.90;;;;;;5050048;28;20590;-82
2023/04/24 02:43:49;;;;;;;0.37;0.37;;;10.70;99.90;;;;;;5054026;28;20241;-82
2023/04/24 02:46:15;;;;;;;0.40;0.40;;;10.70;99.90;;;;;;5053872;28;20221;-83
2023/04/24 02:48:41;;;;;;;0.43;0.43;;;10.70;99.90;;;;;;5047701;28;20209;-83
2023/04/24 02:51:06;;;;;;;1.60;0.63;;;10.70;99.90;;;;;;5052365;28;20271;-82
2023/04/24 02:53:32;;;;;;;0.30;0.30;;;10.70;99.90;;;;;;5051388;28;20598;-82
2023/04/24 02:55:58;;;;;;;0.33;0.33;;;10.70;99.90;;;;;;5052847;27;20594;-84
2023/04/24 02:58:24;;;;;;;0.63;0.60;;;10.70;99.90;;;;;;5042569;28;20638;-82
2023/04/24 03:00:55;;;;;;;0.30;0.30;;;10.70;99.90;;;;;;5048094;28;20220;-83
2023/04/24 03:03:21;;;;;;;0.27;0.27;;;10.60;99.90;;;;;;5051079;28;20235;-83
2023/04/24 03:05:47;;;;;;;0.40;0.40;;;10.60;99.90;;;;;;5049815;28;20636;-83
2023/04/24 03:08:14;;;;;;;0.20;0.20;;;10.60;99.90;;;;;;5049946;28;20224;-82
2023/04/24 03:10:40;;;;;;;0.40;0.40;;;10.60;99.90;;;;;;5051745;28;20266;-83
2023/04/24 03:13:05;;;;;;;0.10;0.10;;;10.60;99.90;;;;;;5052139;28;20316;-82
2023/04/24 03:15:31;;;;;;;0.50;0.50;;;10.60;99.90;;;;;;5051244;28;20224;-81
2023/04/24 03:17:57;;;;;;;0.30;0.30;;;10.60;99.90;;;;;;5052109;27;20312;-81
2023/04/24 03:20:23;;;;;;;0.17;0.17;;;10.70;99.90;;;;;;5051896;28;20194;-82
2023/04/24 03:22:49;;;;;;;0.20;0.20;;;10.60;99.90;;;;;;5051036;27;20264;-82
2023/04/24 03:25:15;;;;;;;0.50;0.50;;;10.60;99.90;;;;;;5032367;28;20248;-83
2023/04/24 03:27:41;;;;;;;0.30;0.30;;;10.60;99.90;;;;;;5051007;28;20548;-81
2023/04/24 03:30:07;;;;;;;2.57;0.40;;;10.60;99.90;;;;;;5050293;28;20421;-82
2023/04/24 03:32:33;;;;;;;0.40;0.40;;;10.60;99.90;;;;;;5050518;28;20208;-82
2023/04/24 03:34:59;;;;;;;0.80;0.80;;;10.60;99.90;;;;;;5049981;28;20679;-82
2023/04/24 03:37:26;;;;;;;0.60;0.47;;;10.60;99.90;;;;;;5048779;28;20735;-82
2023/04/24 03:39:52;;;;;;;0.37;0.37;;;10.50;99.90;;;;;;5051778;28;20735;-82
2023/04/24 03:42:18;;;;;;;1.50;1.13;;;10.60;99.90;;;;;;5049757;28;20240;-83
2023/04/24 03:44:43;;;;;;;0.30;0.30;;;10.60;99.90;;;;;;5051937;28;20224;-83
2023/04/24 03:47:09;;;;;;;0.33;0.33;;;10.50;99.90;;;;;;5040996;28;20251;-82
2023/04/24 03:49:35;;;;;;;0.37;0.37;;;10.50;99.90;;;;;;5049842;27;20964;-83
2023/04/24 03:52:01;;;;;;;0.50;0.50;;;10.50;99.90;;;;;;5048812;28;20229;-82
2023/04/24 03:54:26;;;;;;;0.30;0.30;;;10.50;99.90;;;;;;5052341;28;20235;-83
2023/04/24 03:56:52;;;;;;;0.67;0.60;;;10.50;99.90;;;;;;5032365;28;20240;-82
2023/04/24 03:59:18;;;;;;;0.30;0.30;;;10.50;99.90;;;;;;5052467;28;20825;-82
2023/04/24 04:01:45;;;;;;;0.30;0.30;;;10.50;99.90;;;;;;5053218;27;20217;-83
2023/04/24 04:04:11;;;;;;;1.00;1.00;;;10.40;99.90;;;;;;5042433;28;20359;-82
2023/04/24 04:06:37;;;;;;;0.50;0.50;;;10.50;99.90;;;;;;5063621;28;20222;-82
2023/04/24 04:09:03;;;;;;;0.30;0.30;;;10.50;99.90;;;;;;5049592;28;20327;-83
2023/04/24 04:11:28;;;;;;;0.87;0.87;;;10.40;99.90;;;;;;5051240;28;20555;-82
2023/04/24 04:13:54;;;;;;;0.30;0.30;;;10.40;99.90;;;;;;5065547;28;20213;-82
2023/04/24 04:16:20;;;;;;;0.10;0.10;;;10.40;99.90;;;;;;5046150;28;20996;-82
2023/04/24 04:18:46;;;;;;;2.63;0.90;;;10.40;99.90;;;;;;5048750;28;20222;-83
2023/04/24 04:21:12;;;;;;;1.97;0.77;;;10.40;99.90;;;;;;5050943;28;20275;-83
2023/04/24 04:23:37;;;;;;;1.10;1.10;;;10.40;99.90;;;;;;5053967;28;20341;-82
2023/04/24 04:26:04;;;;;;;1.70;1.60;;;10.40;99.90;;;;;;5039809;28;20321;-82
2023/04/24 04:28:33;;;;;;;1.87;0.90;;;10.40;99.90;;;;;;5046782;28;20245;-82
2023/04/24 04:30:59;;;;;;;1.13;1.07;;;10.40;99.90;;;;;;5049675;28;20240;-82
2023/04/24 04:33:25;;;;;;;3.30;1.17;;;10.40;99.90;;;;;;5051756;28;20686;-82
2023/04/24 04:35:52;;;;;;;0.77;0.77;;;10.40;99.90;;;;;;5050891;28;20281;-81
2023/04/24 04:38:19;;;;;;;1.80;1.10;;;10.40;99.90;;;;;;5049217;28;20590;-82
2023/04/24 04:40:45;;;;;;;1.43;1.33;;;10.40;99.90;;;;;;5049122;28;20218;-82
2023/04/24 04:43:13;;;;;;;3.50;1.07;;;10.40;99.90;;;;;;5049882;28;20238;-84
2023/04/24 04:45:41;;;;;;;0.60;0.60;;;10.40;99.90;;;;;;5040988;28;20308;-83
2023/04/24 04:48:12;;;;;;;0.90;0.90;;;10.40;99.90;;;;;;5050860;27;20221;-82
2023/04/24 04:50:38;;;;;;;2.27;1.87;;;10.40;99.90;;;;;;5048969;28;20188;-82
2023/04/24 04:53:05;;;;;;;0.33;0.33;;;10.40;99.90;;;;;;5049856;28;20225;-82
2023/04/24 04:55:30;;;;;;;1.17;0.60;;;10.30;99.90;;;;;;5052548;27;20544;-83
2023/04/24 04:57:57;;;;;;;0.63;0.63;;;10.30;99.90;;;;;;5049365;28;20726;-82
2023/04/24 05:00:25;;;;;;;1.23;1.23;;;10.10;99.90;;;;;;5050669;27;20294;-83
2023/04/24 05:02:51;;;;;;;0.40;0.40;;;10.20;99.90;;;;;;5050174;27;20218;-82
2023/04/24 05:05:17;;;;;;;0.50;0.50;;;10.10;99.90;;;;;;5064637;28;20234;-82
2023/04/24 05:07:44;;;;;;;0.23;0.23;;;10.10;99.90;;;;;;5052008;27;20362;-82
2023/04/24 05:10:10;;;;;;;0.20;0.20;;;10.20;99.90;;;;;;5047617;27;20531;-83
2023/04/24 05:12:36;;;;;;;0.60;0.60;;;10.20;99.90;;;;;;5052860;28;20560;-83
2023/04/24 05:15:02;;;;;;;1.00;1.00;;;10.30;99.90;;;;;;5052093;27;20834;-84
2023/04/24 05:17:29;;;;;;;0.30;0.30;;;10.40;99.90;;;;;;5047816;28;20312;-85
2023/04/24 05:19:55;;;;;;;1.07;1.07;;;10.30;99.90;;;;;;5054821;27;20229;-83
2023/04/24 05:22:21;;;;;;;0.50;0.37;;;10.20;99.90;;;;;;5050949;28;20706;-83
2023/04/24 05:24:47;;;;;;;0.27;0.27;;;10.20;99.90;;;;;;5037465;28;20218;-84
2023/04/24 05:27:16;;;;;;;0.60;0.60;;;10.20;99.90;;;;;;5053850;28;20232;-82
2023/04/24 05:29:41;;;;;;;0.33;0.33;;;10.20;99.90;;;;;;5047779;28;20205;-82
2023/04/24 05:32:07;;;;;;;0.40;0.40;;;10.10;99.90;;;;;;5049328;27;20244;-84
2023/04/24 05:34:33;;;;;;;0.40;0.40;;;10.10;99.90;;;;;;5054658;28;20290;-83
2023/04/24 05:36:59;;;;;;;0.40;0.40;;;10.10;99.90;;;;;;5054047;27;20698;-83
2023/04/24 05:39:24;;;;;;;0.70;0.63;;;10.10;99.90;;;;;;5052902;27;20293;-83
2023/04/24 05:41:51;;;;;;;0.20;0.20;;;10.10;99.90;;;;;;5036724;28;20194;-84
2023/04/24 05:44:16;;;;;;;0.20;0.20;;;10.10;99.90;;;;;;5052988;28;20726;-83
2023/04/24 05:46:42;;;;;;;0.63;0.63;;;10.00;99.90;;;;;;5043642;28;20212;-84
2023/04/24 05:49:08;;;;;;;0.50;0.50;;;10.00;99.90;;;;;;5048117;28;20746;-84
2023/04/24 05:51:34;;;;;;;2.00;1.13;;;10.00;99.90;;;;;;5043285;28;20572;-81
2023/04/24 05:54:00;;;;;;;0.53;0.53;;;10.00;99.90;;;;;;5053174;28;20194;-82
2023/04/24 05:56:26;;;;;;;1.03;0.60;;;10.00;99.90;;;;;;5045569;28;20310;-83
2023/04/24 05:58:51;;;;;;;0.73;0.73;;;9.90;99.90;;;;;;5056819;27;20301;-85
2023/04/24 06:01:18;;;;;;;0.43;0.43;;;10.00;99.90;;;;;;5054145;28;20221;-83
2023/04/24 06:03:43;;;;;;;0.47;0.40;;;10.00;99.90;;;;;;5045971;28;20977;-82
2023/04/24 06:06:09;;;;;;;0.70;0.63;;;10.00;99.90;;;;;;5044958;28;20233;-83
2023/04/24 06:08:35;;;;;;;1.17;0.67;;;10.00;99.90;;;;;;5054874;28;20200;-84
2023/04/24 06:11:01;;;;;;;0.40;0.40;;;10.00;99.90;;;;;;5051863;28;20242;-84
2023/04/24 06:13:27;;;;;;;0.20;0.20;;;9.90;99.90;;;;;;5054794;28;20300;-83
2023/04/24 06:15:53;;;;;;;0.60;0.60;;;9.90;99.90;;;;;;5052311;27;20383;-83
2023/04/24 06:18:18;;;;;;;1.40;1.07;;;9.90;99.90;;;;;;5052104;28;20238;-83
2023/04/24 06:20:47;;;;;;;0.97;0.93;;;9.80;99.90;;;;;;5052074;28;20186;-82
2023/04/24 06:23:13;;;;;;;0.50;0.50;;;9.80;99.90;;;;;;5054125;28;20685;-83
2023/04/24 06:25:38;;;;;;;1.57;1.50;;;9.80;99.90;;;;;;5053447;27;20221;-84
2023/04/24 06:28:04;;;;;;;0.50;0.50;;;9.80;99.90;;;;;;5051883;28;20287;-83
2023/04/24 06:30:31;;;;;;;2.07;1.90;;;9.80;99.90;;;;;;5053681;28;20221;-84
2023/04/24 06:32:56;;;;;;;0.70;0.70;;;9.80;99.90;;;;;;5053612;28;20251;-84
2023/04/24 06:35:22;;;;;;;0.97;0.83;;;9.80;99.90;;;;;;5053070;28;20627;-84
2023/04/24 06:37:51;;;;;;;2.67;1.77;;;9.70;99.90;;;;;;5067585;28;20337;-85
2023/04/24 06:40:18;;;;;;;3.03;2.93;;;9.70;99.90;;;;;;5052050;28;20326;-83
2023/04/24 06:42:47;;;;;;;3.63;3.33;;;9.70;99.90;;;;;;5049492;28;20261;-84
2023/04/24 06:45:12;;;;;;;0.33;0.33;;;9.60;99.90;;;;;;5053933;28;21563;-83
2023/04/24 06:47:38;;;;;;;1.83;1.77;;;9.70;99.90;;;;;;5053610;28;20188;-83
2023/04/24 06:50:05;;;;;;;0.60;0.60;;;9.70;99.90;;;;;;5052155;28;20225;-83
2023/04/24 06:52:32;;;;;;;1.67;1.00;;;9.70;99.90;;;;;;5048947;28;20320;-85
2023/04/24 06:55:02;;;;;;;1.93;1.70;;;9.70;99.90;;;;;;5048759;28;20221;-84
2023/04/24 06:57:28;;;;;;;1.47;1.37;;;9.70;99.90;;;;;;5052705;27;20574;-83
2023/04/24 06:59:54;;;;;;;0.90;0.73;;;9.80;99.90;;;;;;5046601;28;20193;-84
2023/04/24 07:02:20;;;;;;;2.20;2.07;;;9.80;99.90;;;;;;5045675;28;20222;-83
2023/04/24 07:04:47;;;;;;;3.83;2.13;;;9.80;99.90;;;;;;5041421;28;20738;-84
2023/04/24 07:07:14;;;;;;;2.57;2.43;;;9.70;99.90;;;;;;5050622;27;20318;-83
2023/04/24 07:09:42;;;;;;;1.73;1.63;;;9.70;99.90;;;;;;5057933;28;20247;-83
2023/04/24 07:12:11;;;;;;;7.17;6.53;;;9.60;99.90;;;;;;5061948;27;20468;-83
2023/04/24 07:14:37;;;;;;;2.77;2.43;;;9.60;99.90;;;;;;5053222;28;20212;-83
2023/04/24 07:17:05;;;;;;;3.13;2.00;;;9.70;99.90;;;;;;5051714;28;20407;-83
2023/04/24 07:19:30;;;;;;;2.27;1.77;;;9.60;99.90;;;;;;5051169;28;20226;-84
2023/04/24 07:21:58;;;;;;;1.03;1.03;;;9.70;99.90;;;;;;5054649;28;20218;-85
2023/04/24 07:24:24;;;;;;;0.80;0.80;;;9.70;99.90;;;;;;5050962;28;20224;-84
2023/04/24 07:26:51;;;;;;;3.47;2.03;;;9.70;99.90;;;;;;5053758;27;20202;-84
2023/04/24 07:29:20;;;;;;;9.43;3.50;;;9.60;99.90;;;;;;5052547;28;21126;-83
2023/04/24 07:31:46;;;;;;;1.43;1.33;;;9.60;99.90;;;;;;5052484;28;20270;-85
2023/04/24 07:34:12;;;;;;;1.43;1.33;;;9.70;99.90;;;;;;5051248;27;20218;-88
2023/04/24 07:36:38;;;;;;;1.37;1.27;;;9.70;99.90;;;;;;5050244;27;20232;-85
2023/04/24 07:39:05;;;;;;;1.33;1.33;;;9.80;99.90;;;;;;5051741;28;20721;-85
2023/04/24 07:41:31;;;;;;;1.00;1.00;;;9.80;99.90;;;;;;5049621;28;20293;-85
2023/04/24 07:43:58;;;;;;;0.40;0.40;;;9.80;99.90;;;;;;5032292;28;20754;-86
2023/04/24 07:46:24;;;;;;;1.33;1.23;;;9.80;99.90;;;;;;5052760;28;20213;-86
2023/04/24 07:48:50;;;;;;;1.43;1.33;;;9.90;99.90;;;;;;5053657;28;20623;-85
2023/04/24 07:51:16;;;;;;;2.10;2.00;;;9.90;99.90;;;;;;5054956;27;20214;-86
2023/04/24 07:53:42;;;;;;;1.43;1.33;;;9.90;99.90;;;;;;5061000;28;20194;-86
2023/04/24 07:56:08;;;;;;;6.50;2.10;;;9.90;99.90;;;;;;5043540;28;20226;-87
2023/04/24 07:58:36;;;;;;;1.00;0.90;;;9.90;99.90;;;;;;5055900;28;20213;-85
2023/04/24 08:01:02;;;;;;;1.97;1.33;;;9.90;99.90;;;;;;5036939;28;20595;-85
2023/04/24 08:03:28;;;;;;;1.37;1.27;;;9.90;99.90;;;;;;5053880;28;20710;-85
2023/04/24 08:05:55;;;;;;;1.87;1.70;;;10.00;99.90;;;;;;5043253;28;20245;-85
2023/04/24 08:08:22;;;;;;;1.00;1.00;;;10.00;99.90;;;;;;5043750;28;20193;-84
2023/04/24 08:10:47;;;;;;;1.80;1.23;;;10.10;99.90;;;;;;5051922;28;20251;-84
2023/04/24 08:13:13;;;;;;;0.80;0.77;;;10.10;99.90;;;;;;5042311;28;20225;-86
2023/04/24 08:15:39;;;;;;;1.20;1.13;;;10.10;99.90;;;;;;5052626;28;20232;-85
2023/04/24 08:18:05;;;;;;;0.77;0.77;;;10.10;99.90;;;;;;5052301;27;20224;-85
2023/04/24 08:20:31;;;;;;;1.03;1.03;;;10.10;99.90;;;;;;5054734;28;20197;-84
2023/04/24 08:22:56;;;;;;;1.50;1.40;;;10.00;99.90;;;;;;5051804;28;20238;-85
2023/04/24 08:25:25;;;;;;;0.87;0.83;;;10.00;99.90;;;;;;5052110;28;20222;-85
2023/04/24 08:27:51;;;;;;;1.23;1.03;;;10.10;99.90;;;;;;5047158;28;20222;-84
2023/04/24 08:30:17;;;;;;;1.47;1.37;;;10.10;99.90;;;;;;5052898;27;20270;-84
2023/04/24 08:32:43;;;;;;;3.70;1.47;;;10.20;99.90;;;;;;5055913;28;20653;-84
2023/04/24 08:35:09;;;;;;;1.83;1.40;;;10.10;99.90;;;;;;5052272;28;20267;-86
2023/04/24 08:37:35;;;;;;;1.83;1.43;;;10.10;99.90;;;;;;5051274;28;20252;-86
2023/04/24 08:40:22;;;;;;;1.07;1.00;;;10.10;99.90;;;;;;5053827;28;20312;-84
2023/04/24 08:42:49;;;;;;;3.70;1.80;;;10.20;99.90;;;;;;5070185;28;20242;-85
2023/04/24 08:45:15;;;;;;;3.47;1.20;;;10.40;99.90;;;;;;5052450;28;20210;-85
2023/04/24 08:47:42;;;;;;;1.00;1.00;;;10.50;99.90;;;;;;5058516;28;20193;-84
2023/04/24 08:50:09;;;;;;;1.17;1.07;;;10.60;99.90;;;;;;5055879;27;20802;-86
2023/04/24 08:52:35;;;;;;;8.27;1.23;;;10.50;99.90;;;;;;5060315;28;20220;-86
2023/04/24 08:55:02;;;;;;;1.20;1.10;;;10.50;99.90;;;;;;5058390;27;20228;-86
2023/04/24 08:57:29;;;;;;;2.10;1.30;;;10.70;99.90;;;;;;5055303;28;20229;-86
2023/04/24 08:59:56;;;;;;;1.20;1.20;;;10.80;99.90;;;;;;5057172;27;20574;-86
2023/04/24 09:02:23;;;;;;;0.50;0.50;;;10.80;99.90;;;;;;5057082;28;20217;-86
2023/04/24 09:04:50;;;;;;;1.90;1.57;;;10.90;99.90;;;;;;5057789;28;20228;-86
2023/04/24 09:07:17;;;;;;;19.53;2.27;;;10.90;99.90;;;;;;5055081;28;20291;-86
2023/04/24 09:09:44;;;;;;;2.40;1.27;;;11.10;99.90;;;;;;5073295;28;20217;-86
2023/04/24 09:12:10;;;;;;;1.90;1.80;;;11.00;99.90;;;;;;5056038;28;20235;-87
2023/04/24 09:14:39;;;;;;;0.57;0.57;;;11.20;99.90;;;;;;5055133;28;20197;-86
2023/04/24 09:17:06;;;;;;;1.07;1.07;;;11.30;99.90;;;;;;5058573;28;20221;-86
2023/04/24 09:19:32;;;;;;;2.50;1.47;;;11.50;99.90;;;;;;5055814;28;20228;-85
2023/04/24 09:21:57;;;;;;;1.33;1.23;;;11.30;99.90;;;;;;5057062;28;20218;-87
2023/04/24 09:24:23;;;;;;;4.30;1.10;;;11.60;99.90;;;;;;5048088;28;20217;-87
2023/04/24 09:26:58;;;;;;;6.53;0.70;;;12.10;99.90;;;;;;5055444;27;20185;-88
2023/04/24 09:29:25;;;;;;;0.87;0.87;;;11.80;99.90;;;;;;5059320;28;20185;-87
2023/04/24 09:31:51;;;;;;;2.40;1.43;;;11.50;99.90;;;;;;5057248;28;20236;-87
2023/04/24 09:34:22;;;;;;;0.13;0.13;;;11.50;99.90;;;;;;5055472;28;20217;-89
2023/04/24 09:36:48;;;;;;;0.83;0.70;;;11.50;99.90;;;;;;5055165;28;20248;-88
2023/04/24 09:39:16;;;;;;;1.43;0.70;;;11.60;99.90;;;;;;5057736;28;20622;-89
2023/04/24 09:41:52;;;;;;;0.83;0.77;;;11.40;99.90;;;;;;5056881;28;20196;-87
2023/04/24 09:44:23;;;;;;;3.70;1.13;;;11.40;99.90;;;;;;5054745;28;20515;-87
2023/04/24 09:46:54;;;;;;;3.20;0.97;;;11.60;99.90;;;;;;5054907;28;20222;-87
2023/04/24 09:49:24;;;;;;;1.70;0.73;;;11.50;99.90;;;;;;5054153;28;20220;-86
2023/04/24 09:51:51;;;;;;;0.67;0.60;;;11.50;99.90;;;;;;5056234;27;20569;-88
2023/04/24 09:54:20;;;;;;;0.50;0.50;;;11.40;99.90;;;;;;5045040;28;20229;-87
2023/04/24 09:56:47;;;;;;;1.07;1.07;;;11.30;99.90;;;;;;5052333;27;20197;-87
2023/04/24 09:59:18;;;;;;;0.40;0.30;;;11.40;99.90;;;;;;5067847;28;20213;-87
2023/04/24 10:01:44;;;;;;;0.63;0.63;;;11.40;99.90;;;;;;5051355;28;20968;-87
2023/04/24 10:04:23;;;;;;;0.40;0.40;;;11.30;99.90;;;;;;5045954;28;20236;-87
2023/04/24 10:06:50;;;;;;;3.13;1.13;;;11.30;99.90;;;;;;5055386;28;20240;-87
2023/04/24 10:09:20;;;;;;;17.07;1.20;;;11.50;99.90;;;;;;5057282;27;20237;-87
2023/04/24 10:11:48;;;;;;;1.63;1.53;;;11.60;99.90;;;;;;5055746;28;20185;-85
2023/04/24 10:14:20;;;;;;;0.40;0.40;;;11.40;99.90;;;;;;5056037;28;20181;-89
2023/04/24 10:16:46;;;;;;;7.73;1.37;;;11.30;99.90;;;;;;5060603;28;20672;-86
2023/04/24 10:19:14;;;;;;;0.33;0.33;;;11.50;99.90;;;;;;5052535;27;20969;-88
2023/04/24 10:21:47;;;;;;;4.00;1.47;;;11.40;99.90;;;;;;5052370;28;20213;-86
2023/04/24 10:24:15;;;;;;;3.50;3.13;;;11.30;99.90;;;;;;5052172;28;20836;-88
2023/04/24 10:26:42;;;;;;;1.63;0.73;;;11.30;99.90;;;;;;5055625;28;20190;-87
2023/04/24 10:29:09;;;;;;;0.77;0.43;;;11.40;99.90;;;;;;5059656;28;20295;-89
2023/04/24 10:31:37;;;;;;;0.37;0.37;;;11.20;99.90;;;;;;5056549;28;20224;-87
2023/04/24 10:34:04;;;;;;;0.70;0.70;;;11.10;99.90;;;;;;5057946;27;20221;-87
2023/04/24 10:36:32;;;;;;;0.30;0.30;;;11.20;99.90;;;;;;5038992;28;20223;-86
2023/04/24 10:39:00;;;;;;;0.37;0.37;;;11.00;99.90;;;;;;5057156;28;20194;-87
2023/04/24 10:41:27;;;;;;;0.33;0.33;;;11.20;99.90;;;;;;5058908;28;20270;-86
2023/04/24 10:44:22;;;;;;;0.33;0.33;;;11.40;99.90;;;;;;5055668;28;20379;-87
2023/04/24 10:46:54;;;;;;;0.53;0.53;;;11.30;99.90;;;;;;5053840;28;20607;-87
2023/04/24 10:49:29;;;;;;;3.53;0.93;;;11.20;99.90;;;;;;5052205;28;20303;-85
2023/04/24 10:52:01;;;;;;;0.30;0.30;;;11.20;99.90;;;;;;5062664;28;20209;-86
2023/04/24 10:54:29;;;;;;;1.17;0.77;;;11.10;99.90;;;;;;5052878;28;20369;-85
2023/04/24 10:57:28;;;;;;;1.47;1.43;;;11.00;99.90;;;;;;5055337;27;20243;-83
2023/04/24 11:00:14;;;;;;;0.70;0.63;;;10.70;99.90;;;;;;5054140;27;20211;-85
2023/04/24 11:02:47;;;;;;;5.43;1.10;;;10.30;99.90;;;;;;5053110;28;20206;-85
2023/04/24 11:05:16;;;;;;;0.30;0.30;;;10.30;99.90;;;;;;5078022;28;20533;-85
2023/04/24 11:08:14;;;;;;;0.63;0.63;;;10.30;99.90;;;;;;5052161;27;20951;-85
2023/04/24 11:10:53;;;;;;;0.93;0.60;;;10.40;99.90;;;;;;5054057;28;20305;-86
2023/04/24 11:13:22;;;;;;;2.83;0.57;;;10.50;99.90;;;;;;5052030;28;20228;-86
2023/04/24 11:16:14;;;;;;;0.47;0.47;;;10.70;99.90;;;;;;5054834;27;20761;-85
2023/04/24 11:18:46;;;;;;;0.30;0.30;;;10.50;99.90;;;;;;5053324;28;20385;-85
2023/04/24 11:21:12;;;;;;;0.60;0.60;;;10.30;99.90;;;;;;5055339;28;20217;-86
2023/04/24 11:23:40;;;;;;;2.33;0.60;;;10.30;99.90;;;;;;5053602;28;20214;-84
2023/04/24 11:26:22;;;;;;;0.67;0.67;;;10.40;99.90;;;;;;5055512;28;20229;-85
2023/04/24 11:28:49;;;;;;;0.50;0.50;;;10.40;99.90;;;;;;5055122;27;20292;-86
2023/04/24 11:31:41;;;;;;;0.60;0.60;;;10.50;99.90;;;;;;5053067;28;20222;-85
2023/04/24 11:34:13;;;;;;;1.47;1.37;;;10.50;99.90;;;;;;5054033;28;20228;-87
2023/04/24 11:36:40;;;;;;;2.80;0.63;;;10.60;99.90;;;;;;5056246;28;20213;-85
2023/04/24 11:39:06;;;;;;;4.70;1.30;;;10.60;99.90;;;;;;5061414;28;20230;-86
2023/04/24 11:41:33;;;;;;;0.57;0.57;;;10.60;99.90;;;;;;5056790;28;20194;-86
2023/04/24 11:44:00;;;;;;;1.47;0.70;;;10.70;99.90;;;;;;5052962;27;20263;-87
2023/04/24 11:46:29;;;;;;;17.33;1.47;;;10.70;99.90;;;;;;5057097;27;20237;-86
2023/04/24 11:48:56;;;;;;;0.23;0.23;;;10.60;99.90;;;;;;5068591;28;20209;-86
2023/04/24 11:51:26;;;;;;;1.07;0.83;;;10.60;99.90;;;;;;5055638;27;21015;-87
2023/04/24 11:53:53;;;;;;;0.33;0.33;;;10.70;99.90;;;;;;5052321;28;20190;-86
2023/04/24 11:56:23;;;;;;;0.30;0.30;;;10.70;99.90;;;;;;5052190;28;20190;-84
2023/04/24 11:58:51;;;;;;;0.60;0.40;;;10.80;99.90;;;;;;5054950;28;20218;-87
2023/04/24 12:01:17;;;;;;;0.40;0.40;;;10.90;99.90;;;;;;5051857;28;20311;-87
2023/04/24 12:03:48;;;;;;;2.30;0.40;;;10.90;99.90;;;;;;5045522;28;20315;-88
2023/04/24 12:06:13;;;;;;;0.70;0.40;;;11.00;99.90;;;;;;5053174;27;20233;-87
2023/04/24 12:08:39;;;;;;;6.33;0.50;;;11.10;99.90;;;;;;5045092;28;20742;-88
2023/04/24 12:11:07;;;;;;;1.43;0.33;;;11.10;99.90;;;;;;5045614;28;20346;-88
2023/04/24 12:13:34;;;;;;;0.67;0.60;;;11.20;99.90;;;;;;5045546;28;20225;-89
2023/04/24 12:16:03;;;;;;;0.40;0.40;;;11.10;99.90;;;;;;5070321;28;20624;-85
2023/04/24 12:18:28;;;;;;;1.70;0.40;;;11.10;99.90;;;;;;5054670;27;20218;-86
2023/04/24 12:20:54;;;;;;;2.63;0.50;;;11.10;99.90;;;;;;5048885;28;20243;-86
2023/04/24 12:23:35;;;;;;;0.40;0.40;;;11.20;99.90;;;;;;5053854;28;20859;-84
2023/04/24 12:26:04;;;;;;;0.83;0.30;;;11.30;99.90;;;;;;5053048;27;20225;-86
2023/04/24 12:28:38;;;;;;;0.30;0.30;;;11.30;99.90;;;;;;5051266;28;20222;-86
2023/04/24 12:31:04;;;;;;;0.23;0.23;;;11.20;99.90;;;;;;5069089;28;20314;-85
2023/04/24 12:33:33;;;;;;;15.60;0.50;;;11.30;99.90;;;;;;5054146;27;20221;-83
2023/04/24 12:35:59;;;;;;;0.63;0.53;;;11.30;99.90;;;;;;5066428;28;20193;-87
2023/04/24 12:38:26;;;;;;;1.70;0.80;;;11.10;99.90;;;;;;5055981;28;20186;-87
2023/04/24 12:41:09;;;;;;;0.93;0.70;;;11.10;99.90;;;;;;5041851;28;20769;-86
2023/04/24 12:43:36;;;;;;;0.60;0.60;;;11.00;99.90;;;;;;5054380;28;20643;-86
2023/04/24 12:46:02;;;;;;;2.47;1.77;;;10.90;99.90;;;;;;5048929;28;20313;-85
2023/04/24 12:48:29;;;;;;;0.27;0.27;;;11.10;99.90;;;;;;5049082;28;20213;-85